PWSweather.com
Personal Weather Stations
Station Observations
KCATEHAC8
Golden Hills West, Tehachapi, CA 93561

Golden Hills WestTehachapi, CA 93561

Lat: 35.1464281, Lon: -118.498692

Elevation: 3862

Station Type: Davis Vantage ProII

http://mountainbase.com/weather/Current_Vantage_Pro.htm

Latest ConditionsUpdated 6:35:12 PM PST Saturday, Dec 15, 2018
Currently Today's Max Today's Min Today's Average
Temperature 43.8°F6.6°C 63.2°F17.3°C 30.5°F-0.8°C 45.1°F7.3°C
Dew Point 24.4°F-4.2°C 32.7°F0.4°C 11.1°F-11.6°C 19.1°F-7.2°C
Winds 5.0 mph S8.0 kmh S 13.0 mph -20.9 kmh - - 4.1 mph 6.6 kmh
Wind Gusts -- -- - -
Humidity 46% 56% 14% 38%
Pressure 30.21 in1023.0 mb 30.23 in1023.7 mb 30.14 in1020.7 mb -
Hour Temp Dew Point Humidity Winds Wind Gusts Pressure Precip Precip Rate Daily Precip Total
06:35 PM 43.8°F6.6°C 24.4°F-4.2°C 46% 5.0 mph S8.0 kmh S -- 30.21 in1023.0 mb 0.00 in0.0 mm 0.00 in0.0 mm 0.00 in0.0 mm
06:30 PM 44.2°F6.8°C 24.8°F-4.0°C 46% 4.0 mph S6.4 kmh S -- 30.21 in1023.0 mb 0.00 in0.0 mm 0.00 in0.0 mm 0.00 in0.0 mm
06:25 PM 44.6°F7.0°C 24.6°F-4.1°C 45% 2.0 mph S3.2 kmh S -- 30.21 in1023.0 mb 0.00 in0.0 mm 0.00 in0.0 mm 0.00 in0.0 mm
06:20 PM 45.2°F7.3°C 24.6°F-4.1°C 44% 3.0 mph SE4.8 kmh SE -- 30.21 in1023.0 mb 0.00 in0.0 mm 0.00 in0.0 mm 0.00 in0.0 mm
06:15 PM 45.5°F7.5°C 24.3°F-4.3°C 43% 1.0 mph SW1.6 kmh SW -- 30.20 in1022.7 mb 0.00 in0.0 mm 0.00 in0.0 mm 0.00 in0.0 mm
06:10 PM 45.5°F7.5°C 24.3°F-4.3°C 43% Calm Calm -- 30.20 in1022.7 mb 0.00 in0.0 mm 0.00 in0.0 mm 0.00 in0.0 mm
06:05 PM 45.1°F7.3°C 24.6°F-4.1°C 44% 1.0 mph S1.6 kmh S -- 30.20 in1022.7 mb 0.00 in0.0 mm 0.00 in0.0 mm 0.00 in0.0 mm
06:00 PM 44.8°F7.1°C 25.3°F-3.7°C 46% 2.0 mph SE3.2 kmh SE -- 30.20 in1022.7 mb 0.00 in0.0 mm 0.00 in0.0 mm 0.00 in0.0 mm
05:55 PM 44.6°F7.0°C 25.2°F-3.8°C 46% 4.0 mph SW6.4 kmh SW -- 30.20 in1022.7 mb 0.00 in0.0 mm 0.00 in0.0 mm 0.00 in0.0 mm
05:50 PM 45.1°F7.3°C 25.5°F-3.6°C 46% 6.0 mph SSW9.7 kmh SSW -- 30.20 in1022.7 mb 0.00 in0.0 mm 0.00 in0.0 mm 0.00 in0.0 mm
05:45 PM 45.5°F7.5°C 25.3°F-3.7°C 45% 3.0 mph S4.8 kmh S -- 30.20 in1022.7 mb 0.00 in0.0 mm 0.00 in0.0 mm 0.00 in0.0 mm
05:40 PM 46.0°F7.8°C 25.9°F-3.4°C 45% 3.0 mph SE4.8 kmh SE -- 30.20 in1022.7 mb 0.00 in0.0 mm 0.00 in0.0 mm 0.00 in0.0 mm
05:35 PM 46.2°F7.9°C 26.1°F-3.3°C 45% 3.0 mph SSE4.8 kmh SSE -- 30.20 in1022.7 mb 0.00 in0.0 mm 0.00 in0.0 mm 0.00 in0.0 mm
05:30 PM 46.1°F7.8°C 25.9°F-3.4°C 45% 4.0 mph SSE6.4 kmh SSE -- 30.19 in1022.4 mb 0.00 in0.0 mm 0.00 in0.0 mm 0.00 in0.0 mm
05:25 PM 46.4°F8.0°C 27.3°F-2.6°C 47% 4.0 mph S6.4 kmh S -- 30.19 in1022.4 mb 0.00 in0.0 mm 0.00 in0.0 mm 0.00 in0.0 mm
05:20 PM 47.1°F8.4°C 27.9°F-2.3°C 47% 6.0 mph S9.7 kmh S -- 30.19 in1022.4 mb 0.00 in0.0 mm 0.00 in0.0 mm 0.00 in0.0 mm
05:15 PM 48.5°F9.2°C 29.8°F-1.2°C 48% 4.0 mph S6.4 kmh S -- 30.18 in1022.0 mb 0.00 in0.0 mm 0.00 in0.0 mm 0.00 in0.0 mm
05:10 PM 49.8°F9.9°C 30.9°F-0.6°C 48% 6.0 mph S9.7 kmh S -- 30.18 in1022.0 mb 0.00 in0.0 mm 0.00 in0.0 mm 0.00 in0.0 mm
05:05 PM 50.5°F10.3°C 32.2°F0.1°C 49% 5.0 mph S8.0 kmh S -- 30.18 in1022.0 mb 0.00 in0.0 mm 0.00 in0.0 mm 0.00 in0.0 mm
05:00 PM 51.0°F10.6°C 32.0°F0.0°C 48% 2.0 mph SW3.2 kmh SW -- 30.18 in1022.0 mb 0.00 in0.0 mm 0.00 in0.0 mm 0.00 in0.0 mm
04:55 PM 51.4°F10.8°C 31.8°F-0.1°C 47% 2.0 mph SW3.2 kmh SW -- 30.18 in1022.0 mb 0.00 in0.0 mm 0.00 in0.0 mm 0.00 in0.0 mm
04:50 PM 52.0°F11.1°C 31.8°F-0.1°C 46% 2.0 mph SSW3.2 kmh SSW -- 30.18 in1022.0 mb 0.00 in0.0 mm 0.00 in0.0 mm 0.00 in0.0 mm
04:45 PM 52.8°F11.6°C 32.7°F0.4°C 46% 2.0 mph SSW3.2 kmh SSW -- 30.18 in1022.0 mb 0.00 in0.0 mm 0.00 in0.0 mm 0.00 in0.0 mm
04:40 PM 53.2°F11.8°C 32.5°F0.3°C 45% 2.0 mph SSW3.2 kmh SSW -- 30.18 in1022.0 mb 0.00 in0.0 mm 0.00 in0.0 mm 0.00 in0.0 mm
04:35 PM 53.5°F11.9°C 31.5°F-0.3°C 43% Calm Calm -- 30.18 in1022.0 mb 0.00 in0.0 mm 0.00 in0.0 mm 0.00 in0.0 mm
04:30 PM 54.1°F12.3°C 32.7°F0.4°C 44% 2.0 mph WNW3.2 kmh WNW -- 30.18 in1022.0 mb 0.00 in0.0 mm 0.00 in0.0 mm 0.00 in0.0 mm
04:25 PM 54.2°F12.3°C 32.2°F0.1°C 43% 1.0 mph NNE1.6 kmh NNE -- 30.18 in1022.0 mb 0.00 in0.0 mm 0.00 in0.0 mm 0.00 in0.0 mm
04:20 PM 54.5°F12.5°C 31.8°F-0.1°C 42% Calm Calm -- 30.18 in1022.0 mb 0.00 in0.0 mm 0.00 in0.0 mm 0.00 in0.0 mm
04:15 PM 54.7°F12.6°C 32.0°F0.0°C 42% Calm Calm -- 30.18 in1022.0 mb 0.00 in0.0 mm 0.00 in0.0 mm 0.00 in0.0 mm
04:10 PM 54.8°F12.7°C 31.6°F-0.2°C 41% Calm Calm -- 30.18 in1022.0 mb 0.00 in0.0 mm 0.00 in0.0 mm 0.00 in0.0 mm
04:05 PM 55.0°F12.8°C 30.6°F-0.8°C 39% 1.0 mph NE1.6 kmh NE -- 30.18 in1022.0 mb 0.00 in0.0 mm 0.00 in0.0 mm 0.00 in0.0 mm
04:00 PM 55.3°F12.9°C 30.0°F-1.1°C 38% 2.0 mph NE3.2 kmh NE -- 30.17 in1021.7 mb 0.00 in0.0 mm 0.00 in0.0 mm 0.00 in0.0 mm
03:55 PM 55.6°F13.1°C 27.7°F-2.4°C 34% 2.0 mph NNE3.2 kmh NNE -- 30.17 in1021.7 mb 0.00 in0.0 mm 0.00 in0.0 mm 0.00 in0.0 mm
03:50 PM 55.3°F12.9°C 25.2°F-3.8°C 31% 2.0 mph NNE3.2 kmh NNE -- 30.17 in1021.7 mb 0.00 in0.0 mm 0.00 in0.0 mm 0.00 in0.0 mm
03:45 PM 54.8°F12.7°C 25.5°F-3.6°C 32% 3.0 mph NE4.8 kmh NE -- 30.17 in1021.7 mb 0.00 in0.0 mm 0.00 in0.0 mm 0.00 in0.0 mm
03:40 PM 54.7°F12.6°C 27.5°F-2.5°C 35% 2.0 mph N3.2 kmh N -- 30.17 in1021.7 mb 0.00 in0.0 mm 0.00 in0.0 mm 0.00 in0.0 mm
03:35 PM 54.4°F12.4°C 28.6°F-1.9°C 37% 4.0 mph NE6.4 kmh NE -- 30.17 in1021.7 mb 0.00 in0.0 mm 0.00 in0.0 mm 0.00 in0.0 mm
03:30 PM 54.1°F12.3°C 29.1°F-1.6°C 38% 5.0 mph NNE8.0 kmh NNE -- 30.16 in1021.3 mb 0.00 in0.0 mm 0.00 in0.0 mm 0.00 in0.0 mm
03:25 PM 53.8°F12.1°C 30.0°F-1.1°C 40% 3.0 mph NNW4.8 kmh NNW -- 30.16 in1021.3 mb 0.00 in0.0 mm 0.00 in0.0 mm 0.00 in0.0 mm
03:20 PM 53.8°F12.1°C 29.5°F-1.4°C 39% 5.0 mph NW8.0 kmh NW -- 30.16 in1021.3 mb 0.00 in0.0 mm 0.00 in0.0 mm 0.00 in0.0 mm
03:15 PM 54.4°F12.4°C 29.3°F-1.5°C 38% 8.0 mph NW12.9 kmh NW -- 30.16 in1021.3 mb 0.00 in0.0 mm 0.00 in0.0 mm 0.00 in0.0 mm
03:10 PM 54.8°F12.7°C 29.7°F-1.3°C 38% 4.0 mph NW6.4 kmh NW -- 30.16 in1021.3 mb 0.00 in0.0 mm 0.00 in0.0 mm 0.00 in0.0 mm
03:05 PM 55.6°F13.1°C 28.4°F-2.0°C 35% 8.0 mph NNW12.9 kmh NNW -- 30.16 in1021.3 mb 0.00 in0.0 mm 0.00 in0.0 mm 0.00 in0.0 mm
03:00 PM 56.3°F13.5°C 26.1°F-3.3°C 31% 7.0 mph NNW11.3 kmh NNW -- 30.16 in1021.3 mb 0.00 in0.0 mm 0.00 in0.0 mm 0.00 in0.0 mm
02:55 PM 56.5°F13.6°C 23.7°F-4.6°C 28% 6.0 mph NW9.7 kmh NW -- 30.15 in1021.0 mb 0.00 in0.0 mm 0.00 in0.0 mm 0.00 in0.0 mm
02:50 PM 57.5°F14.2°C 24.6°F-4.1°C 28% 8.0 mph NW12.9 kmh NW -- 30.15 in1021.0 mb 0.00 in0.0 mm 0.00 in0.0 mm 0.00 in0.0 mm
02:45 PM 58.6°F14.8°C 23.0°F-5.0°C 25% 13.0 mph NNW20.9 kmh NNW -- 30.15 in1021.0 mb 0.00 in0.0 mm 0.00 in0.0 mm 0.00 in0.0 mm
02:40 PM 59.9°F15.5°C 24.1°F-4.4°C 25% 7.0 mph NNW11.3 kmh NNW -- 30.15 in1021.0 mb 0.00 in0.0 mm 0.00 in0.0 mm 0.00 in0.0 mm
02:35 PM 61.6°F16.4°C 23.4°F-4.8°C 23% 7.0 mph N11.3 kmh N -- 30.14 in1020.7 mb 0.00 in0.0 mm 0.00 in0.0 mm 0.00 in0.0 mm
02:30 PM 63.1°F17.3°C 19.0°F-7.2°C 18% 6.0 mph NW9.7 kmh NW -- 30.15 in1021.0 mb 0.00 in0.0 mm 0.00 in0.0 mm 0.00 in0.0 mm
02:25 PM 62.7°F17.1°C 16.0°F-8.9°C 16% 5.0 mph N8.0 kmh N -- 30.15 in1021.0 mb 0.00 in0.0 mm 0.00 in0.0 mm 0.00 in0.0 mm
02:20 PM 63.1°F17.3°C 16.2°F-8.8°C 16% 3.0 mph NNE4.8 kmh NNE -- 30.14 in1020.7 mb 0.00 in0.0 mm 0.00 in0.0 mm 0.00 in0.0 mm
02:15 PM 63.2°F17.3°C 16.2°F-8.8°C 16% 2.0 mph E3.2 kmh E -- 30.14 in1020.7 mb 0.00 in0.0 mm 0.00 in0.0 mm 0.00 in0.0 mm
02:10 PM 62.9°F17.2°C 16.2°F-8.8°C 16% 3.0 mph E4.8 kmh E -- 30.14 in1020.7 mb 0.00 in0.0 mm 0.00 in0.0 mm 0.00 in0.0 mm
02:05 PM 63.1°F17.3°C 14.7°F-9.6°C 15% 3.0 mph SE4.8 kmh SE -- 30.14 in1020.7 mb 0.00 in0.0 mm 0.00 in0.0 mm 0.00 in0.0 mm
02:00 PM 63.1°F17.3°C 14.7°F-9.6°C 15% 4.0 mph SE6.4 kmh SE -- 30.15 in1021.0 mb 0.00 in0.0 mm 0.00 in0.0 mm 0.00 in0.0 mm
01:55 PM 62.7°F17.1°C 16.0°F-8.9°C 16% 4.0 mph ESE6.4 kmh ESE -- 30.14 in1020.7 mb 0.00 in0.0 mm 0.00 in0.0 mm 0.00 in0.0 mm
01:50 PM 62.6°F17.0°C 14.4°F-9.8°C 15% 5.0 mph SE8.0 kmh SE -- 30.14 in1020.7 mb 0.00 in0.0 mm 0.00 in0.0 mm 0.00 in0.0 mm
01:45 PM 62.6°F17.0°C 14.4°F-9.8°C 15% 5.0 mph ESE8.0 kmh ESE -- 30.14 in1020.7 mb 0.00 in0.0 mm 0.00 in0.0 mm 0.00 in0.0 mm
01:40 PM 62.3°F16.8°C 14.0°F-10.0°C 15% 3.0 mph ESE4.8 kmh ESE -- 30.14 in1020.7 mb 0.00 in0.0 mm 0.00 in0.0 mm 0.00 in0.0 mm
01:35 PM 62.3°F16.8°C 14.0°F-10.0°C 15% 9.0 mph ESE14.5 kmh ESE -- 30.15 in1021.0 mb 0.00 in0.0 mm 0.00 in0.0 mm 0.00 in0.0 mm
01:25 PM 61.8°F16.6°C 13.8°F-10.1°C 15% 6.0 mph SE9.7 kmh SE -- 30.15 in1021.0 mb 0.00 in0.0 mm 0.00 in0.0 mm 0.00 in0.0 mm
01:20 PM 61.8°F16.6°C 13.8°F-10.1°C 15% 4.0 mph ESE6.4 kmh ESE -- 30.15 in1021.0 mb 0.00 in0.0 mm 0.00 in0.0 mm 0.00 in0.0 mm
01:15 PM 61.3°F16.3°C 13.3°F-10.4°C 15% 5.0 mph E8.0 kmh E -- 30.15 in1021.0 mb 0.00 in0.0 mm 0.00 in0.0 mm 0.00 in0.0 mm
01:10 PM 61.5°F16.4°C 13.5°F-10.3°C 15% 7.0 mph SE11.3 kmh SE -- 30.15 in1021.0 mb 0.00 in0.0 mm 0.00 in0.0 mm 0.00 in0.0 mm
01:05 PM 61.3°F16.3°C 11.8°F-11.2°C 14% 10.0 mph ESE16.1 kmh ESE -- 30.16 in1021.3 mb 0.00 in0.0 mm 0.00 in0.0 mm 0.00 in0.0 mm
01:00 PM 61.5°F16.4°C 11.8°F-11.2°C 14% 8.0 mph ESE12.9 kmh ESE -- 30.16 in1021.3 mb 0.00 in0.0 mm 0.00 in0.0 mm 0.00 in0.0 mm
12:55 PM 61.3°F16.3°C 11.8°F-11.2°C 14% 9.0 mph ESE14.5 kmh ESE -- 30.16 in1021.3 mb 0.00 in0.0 mm 0.00 in0.0 mm 0.00 in0.0 mm
12:50 PM 61.6°F16.4°C 11.8°F-11.2°C 14% 5.0 mph SE8.0 kmh SE -- 30.16 in1021.3 mb 0.00 in0.0 mm 0.00 in0.0 mm 0.00 in0.0 mm
12:45 PM 61.8°F16.6°C 12.2°F-11.0°C 14% 8.0 mph E12.9 kmh E -- 30.16 in1021.3 mb 0.00 in0.0 mm 0.00 in0.0 mm 0.00 in0.0 mm
12:40 PM 61.3°F16.3°C 11.8°F-11.2°C 14% 7.0 mph ESE11.3 kmh ESE -- 30.16 in1021.3 mb 0.00 in0.0 mm 0.00 in0.0 mm 0.00 in0.0 mm
12:35 PM 60.9°F16.1°C 11.5°F-11.4°C 14% 7.0 mph SE11.3 kmh SE -- 30.16 in1021.3 mb 0.00 in0.0 mm 0.00 in0.0 mm 0.00 in0.0 mm
12:30 PM 60.9°F16.1°C 11.5°F-11.4°C 14% 7.0 mph ESE11.3 kmh ESE -- 30.16 in1021.3 mb 0.00 in0.0 mm 0.00 in0.0 mm 0.00 in0.0 mm
12:25 PM 60.7°F15.9°C 11.1°F-11.6°C 14% 4.0 mph SSE6.4 kmh SSE -- 30.16 in1021.3 mb 0.00 in0.0 mm 0.00 in0.0 mm 0.00 in0.0 mm
12:20 PM 60.7°F15.9°C 11.1°F-11.6°C 14% 8.0 mph E12.9 kmh E -- 30.16 in1021.3 mb 0.00 in0.0 mm 0.00 in0.0 mm 0.00 in0.0 mm
12:15 PM 60.5°F15.8°C 11.1°F-11.6°C 14% 7.0 mph ESE11.3 kmh ESE -- 30.16 in1021.3 mb 0.00 in0.0 mm 0.00 in0.0 mm 0.00 in0.0 mm
12:10 PM 60.4°F15.8°C 11.1°F-11.6°C 14% 4.0 mph SE6.4 kmh SE -- 30.17 in1021.7 mb 0.00 in0.0 mm 0.00 in0.0 mm 0.00 in0.0 mm
12:05 PM 60.5°F15.8°C 18.0°F-7.8°C 19% 5.0 mph ESE8.0 kmh ESE -- 30.17 in1021.7 mb 0.00 in0.0 mm 0.00 in0.0 mm 0.00 in0.0 mm
12:00 PM 60.6°F15.9°C 18.1°F-7.7°C 19% 8.0 mph ESE12.9 kmh ESE -- 30.17 in1021.7 mb 0.00 in0.0 mm 0.00 in0.0 mm 0.00 in0.0 mm
11:55 AM 60.5°F15.8°C 18.0°F-7.8°C 19% 5.0 mph ENE8.0 kmh ENE -- 30.17 in1021.7 mb 0.00 in0.0 mm 0.00 in0.0 mm 0.00 in0.0 mm
11:50 AM 60.5°F15.8°C 18.0°F-7.8°C 19% 8.0 mph E12.9 kmh E -- 30.17 in1021.7 mb 0.00 in0.0 mm 0.00 in0.0 mm 0.00 in0.0 mm
11:45 AM 60.5°F15.8°C 16.7°F-8.5°C 18% 10.0 mph SE16.1 kmh SE -- 30.17 in1021.7 mb 0.00 in0.0 mm 0.00 in0.0 mm 0.00 in0.0 mm
11:40 AM 60.3°F15.7°C 16.5°F-8.6°C 18% 5.0 mph SE8.0 kmh SE -- 30.18 in1022.0 mb 0.00 in0.0 mm 0.00 in0.0 mm 0.00 in0.0 mm
11:35 AM 60.1°F15.6°C 17.8°F-7.9°C 19% 11.0 mph SE17.7 kmh SE -- 30.18 in1022.0 mb 0.00 in0.0 mm 0.00 in0.0 mm 0.00 in0.0 mm
11:30 AM 60.2°F15.7°C 17.8°F-7.9°C 19% 7.0 mph SE11.3 kmh SE -- 30.18 in1022.0 mb 0.00 in0.0 mm 0.00 in0.0 mm 0.00 in0.0 mm
11:25 AM 60.1°F15.6°C 17.8°F-7.9°C 19% 10.0 mph E16.1 kmh E -- 30.19 in1022.4 mb 0.00 in0.0 mm 0.00 in0.0 mm 0.00 in0.0 mm
11:20 AM 59.8°F15.4°C 18.7°F-7.4°C 20% 3.0 mph ESE4.8 kmh ESE -- 30.19 in1022.4 mb 0.00 in0.0 mm 0.00 in0.0 mm 0.00 in0.0 mm
11:15 AM 59.5°F15.3°C 17.2°F-8.2°C 19% 7.0 mph SE11.3 kmh SE -- 30.19 in1022.4 mb 0.00 in0.0 mm 0.00 in0.0 mm 0.00 in0.0 mm
11:10 AM 59.1°F15.1°C 16.9°F-8.4°C 19% 5.0 mph SSE8.0 kmh SSE -- 30.19 in1022.4 mb 0.00 in0.0 mm 0.00 in0.0 mm 0.00 in0.0 mm
11:05 AM 58.6°F14.8°C 17.8°F-7.9°C 20% 3.0 mph ESE4.8 kmh ESE -- 30.19 in1022.4 mb 0.00 in0.0 mm 0.00 in0.0 mm 0.00 in0.0 mm
11:00 AM 58.0°F14.4°C 18.3°F-7.6°C 21% 5.0 mph SE8.0 kmh SE -- 30.19 in1022.4 mb 0.00 in0.0 mm 0.00 in0.0 mm 0.00 in0.0 mm
10:55 AM 57.7°F14.3°C 18.1°F-7.7°C 21% 7.0 mph E11.3 kmh E -- 30.20 in1022.7 mb 0.00 in0.0 mm 0.00 in0.0 mm 0.00 in0.0 mm
10:50 AM 57.5°F14.2°C 18.0°F-7.8°C 21% 4.0 mph SE6.4 kmh SE -- 30.20 in1022.7 mb 0.00 in0.0 mm 0.00 in0.0 mm 0.00 in0.0 mm
10:45 AM 57.3°F14.1°C 17.8°F-7.9°C 21% 4.0 mph SE6.4 kmh SE -- 30.20 in1022.7 mb 0.00 in0.0 mm 0.00 in0.0 mm 0.00 in0.0 mm
10:40 AM 57.2°F14.0°C 18.7°F-7.4°C 22% 3.0 mph SE4.8 kmh SE -- 30.21 in1023.0 mb 0.00 in0.0 mm 0.00 in0.0 mm 0.00 in0.0 mm
10:35 AM 57.1°F13.9°C 18.5°F-7.5°C 22% 3.0 mph SSE4.8 kmh SSE -- 30.21 in1023.0 mb 0.00 in0.0 mm 0.00 in0.0 mm 0.00 in0.0 mm
10:30 AM 56.9°F13.8°C 18.3°F-7.6°C 22% 5.0 mph ESE8.0 kmh ESE -- 30.21 in1023.0 mb 0.00 in0.0 mm 0.00 in0.0 mm 0.00 in0.0 mm
10:25 AM 56.4°F13.6°C 18.1°F-7.7°C 22% 4.0 mph SE6.4 kmh SE -- 30.21 in1023.0 mb 0.00 in0.0 mm 0.00 in0.0 mm 0.00 in0.0 mm
10:20 AM 55.8°F13.2°C 18.5°F-7.5°C 23% 5.0 mph ESE8.0 kmh ESE -- 30.22 in1023.4 mb 0.00 in0.0 mm 0.00 in0.0 mm 0.00 in0.0 mm
10:15 AM 54.9°F12.7°C 18.7°F-7.4°C 24% 10.0 mph ESE16.1 kmh ESE -- 30.22 in1023.4 mb 0.00 in0.0 mm 0.00 in0.0 mm 0.00 in0.0 mm
10:10 AM 54.0°F12.2°C 19.0°F-7.2°C 25% 2.0 mph S3.2 kmh S -- 30.22 in1023.4 mb 0.00 in0.0 mm 0.00 in0.0 mm 0.00 in0.0 mm
10:05 AM 53.6°F12.0°C 19.6°F-6.9°C 26% 5.0 mph SE8.0 kmh SE -- 30.22 in1023.4 mb 0.00 in0.0 mm 0.00 in0.0 mm 0.00 in0.0 mm
10:00 AM 53.1°F11.7°C 19.0°F-7.2°C 26% 10.0 mph S16.1 kmh S -- 30.22 in1023.4 mb 0.00 in0.0 mm 0.00 in0.0 mm 0.00 in0.0 mm
09:55 AM 52.5°F11.4°C 18.7°F-7.4°C 26% 5.0 mph S8.0 kmh S -- 30.22 in1023.4 mb 0.00 in0.0 mm 0.00 in0.0 mm 0.00 in0.0 mm
09:50 AM 51.8°F11.0°C 18.0°F-7.8°C 26% 4.0 mph S6.4 kmh S -- 30.23 in1023.7 mb 0.00 in0.0 mm 0.00 in0.0 mm 0.00 in0.0 mm
09:45 AM 51.2°F10.7°C 18.5°F-7.5°C 27% 3.0 mph S4.8 kmh S -- 30.23 in1023.7 mb 0.00 in0.0 mm 0.00 in0.0 mm 0.00 in0.0 mm
09:40 AM 50.8°F10.4°C 17.1°F-8.3°C 26% 3.0 mph S4.8 kmh S -- 30.23 in1023.7 mb 0.00 in0.0 mm 0.00 in0.0 mm 0.00 in0.0 mm
09:35 AM 50.1°F10.1°C 18.3°F-7.6°C 28% 6.0 mph S9.7 kmh S -- 30.23 in1023.7 mb 0.00 in0.0 mm 0.00 in0.0 mm 0.00 in0.0 mm
09:30 AM 49.2°F9.6°C 18.3°F-7.6°C 29% 3.0 mph S4.8 kmh S -- 30.22 in1023.4 mb 0.00 in0.0 mm 0.00 in0.0 mm 0.00 in0.0 mm
09:25 AM 48.5°F9.2°C 18.5°F-7.5°C 30% 6.0 mph S9.7 kmh S -- 30.22 in1023.4 mb 0.00 in0.0 mm 0.00 in0.0 mm 0.00 in0.0 mm
09:20 AM 47.9°F8.8°C 18.0°F-7.8°C 30% 3.0 mph SSE4.8 kmh SSE -- 30.22 in1023.4 mb 0.00 in0.0 mm 0.00 in0.0 mm 0.00 in0.0 mm
09:15 AM 47.2°F8.4°C 18.9°F-7.3°C 32% 2.0 mph SSW3.2 kmh SSW -- 30.22 in1023.4 mb 0.00 in0.0 mm 0.00 in0.0 mm 0.00 in0.0 mm
09:10 AM 46.6°F8.1°C 19.0°F-7.2°C 33% 6.0 mph WSW9.7 kmh WSW -- 30.22 in1023.4 mb 0.00 in0.0 mm 0.00 in0.0 mm 0.00 in0.0 mm
09:05 AM 46.0°F7.8°C 18.5°F-7.5°C 33% 4.0 mph S6.4 kmh S -- 30.22 in1023.4 mb 0.00 in0.0 mm 0.00 in0.0 mm 0.00 in0.0 mm
09:00 AM 45.5°F7.5°C 18.9°F-7.3°C 34% 5.0 mph S8.0 kmh S -- 30.22 in1023.4 mb 0.00 in0.0 mm 0.00 in0.0 mm 0.00 in0.0 mm
08:55 AM 45.1°F7.3°C 18.5°F-7.5°C 34% 5.0 mph S8.0 kmh S -- 30.22 in1023.4 mb 0.00 in0.0 mm 0.00 in0.0 mm 0.00 in0.0 mm
08:50 AM 44.6°F7.0°C 18.7°F-7.4°C 35% 5.0 mph S8.0 kmh S -- 30.22 in1023.4 mb 0.00 in0.0 mm 0.00 in0.0 mm 0.00 in0.0 mm
08:45 AM 44.2°F6.8°C 18.3°F-7.6°C 35% 5.0 mph SSW8.0 kmh SSW -- 30.21 in1023.0 mb 0.00 in0.0 mm 0.00 in0.0 mm 0.00 in0.0 mm
08:40 AM 43.7°F6.5°C 17.8°F-7.9°C 35% 6.0 mph S9.7 kmh S -- 30.21 in1023.0 mb 0.00 in0.0 mm 0.00 in0.0 mm 0.00 in0.0 mm
08:35 AM 43.0°F6.1°C 18.0°F-7.8°C 36% 4.0 mph SSW6.4 kmh SSW -- 30.21 in1023.0 mb 0.00 in0.0 mm 0.00 in0.0 mm 0.00 in0.0 mm
08:30 AM 42.3°F5.7°C 18.5°F-7.5°C 38% 7.0 mph S11.3 kmh S -- 30.21 in1023.0 mb 0.00 in0.0 mm 0.00 in0.0 mm 0.00 in0.0 mm
08:25 AM 41.5°F5.3°C 17.8°F-7.9°C 38% 4.0 mph S6.4 kmh S -- 30.21 in1023.0 mb 0.00 in0.0 mm 0.00 in0.0 mm 0.00 in0.0 mm
08:20 AM 40.5°F4.7°C 18.1°F-7.7°C 40% 7.0 mph S11.3 kmh S -- 30.20 in1022.7 mb 0.00 in0.0 mm 0.00 in0.0 mm 0.00 in0.0 mm
08:15 AM 39.5°F4.2°C 17.8°F-7.9°C 41% 8.0 mph S12.9 kmh S -- 30.20 in1022.7 mb 0.00 in0.0 mm 0.00 in0.0 mm 0.00 in0.0 mm
08:10 AM 38.6°F3.7°C 18.1°F-7.7°C 43% 6.0 mph SSE9.7 kmh SSE -- 30.20 in1022.7 mb 0.00 in0.0 mm 0.00 in0.0 mm 0.00 in0.0 mm
08:05 AM 38.0°F3.3°C 19.0°F-7.2°C 46% 6.0 mph SW9.7 kmh SW -- 30.20 in1022.7 mb 0.00 in0.0 mm 0.00 in0.0 mm 0.00 in0.0 mm
08:00 AM 37.5°F3.1°C 18.1°F-7.7°C 45% 6.0 mph SSW9.7 kmh SSW -- 30.20 in1022.7 mb 0.00 in0.0 mm 0.00 in0.0 mm 0.00 in0.0 mm
07:55 AM 37.0°F2.8°C 18.1°F-7.7°C 46% 6.0 mph S9.7 kmh S -- 30.19 in1022.4 mb 0.00 in0.0 mm 0.00 in0.0 mm 0.00 in0.0 mm
07:50 AM 36.6°F2.6°C 18.0°F-7.8°C 46% 4.0 mph S6.4 kmh S -- 30.19 in1022.4 mb 0.00 in0.0 mm 0.00 in0.0 mm 0.00 in0.0 mm
07:45 AM 36.3°F2.4°C 18.0°F-7.8°C 47% 3.0 mph SE4.8 kmh SE -- 30.19 in1022.4 mb 0.00 in0.0 mm 0.00 in0.0 mm 0.00 in0.0 mm
07:40 AM 36.0°F2.2°C 17.8°F-7.9°C 47% 4.0 mph S6.4 kmh S -- 30.19 in1022.4 mb 0.00 in0.0 mm 0.00 in0.0 mm 0.00 in0.0 mm
07:35 AM 35.7°F2.1°C 17.6°F-8.0°C 47% 4.0 mph S6.4 kmh S -- 30.19 in1022.4 mb 0.00 in0.0 mm 0.00 in0.0 mm 0.00 in0.0 mm
07:30 AM 35.3°F1.8°C 17.1°F-8.3°C 47% 5.0 mph S8.0 kmh S -- 30.19 in1022.4 mb 0.00 in0.0 mm 0.00 in0.0 mm 0.00 in0.0 mm
07:25 AM 35.0°F1.7°C 16.9°F-8.4°C 47% 6.0 mph S9.7 kmh S -- 30.19 in1022.4 mb 0.00 in0.0 mm 0.00 in0.0 mm 0.00 in0.0 mm
07:20 AM 34.7°F1.5°C 16.5°F-8.6°C 47% 4.0 mph S6.4 kmh S -- 30.19 in1022.4 mb 0.00 in0.0 mm 0.00 in0.0 mm 0.00 in0.0 mm
07:15 AM 34.6°F1.4°C 16.3°F-8.7°C 47% 4.0 mph S6.4 kmh S -- 30.19 in1022.4 mb 0.00 in0.0 mm 0.00 in0.0 mm 0.00 in0.0 mm
07:10 AM 34.4°F1.3°C 15.8°F-9.0°C 46% 3.0 mph SE4.8 kmh SE -- 30.19 in1022.4 mb 0.00 in0.0 mm 0.00 in0.0 mm 0.00 in0.0 mm
07:05 AM 34.3°F1.3°C 15.8°F-9.0°C 46% 3.0 mph S4.8 kmh S -- 30.19 in1022.4 mb 0.00 in0.0 mm 0.00 in0.0 mm 0.00 in0.0 mm
07:00 AM 34.3°F1.3°C 15.8°F-9.0°C 46% 2.0 mph SE3.2 kmh SE -- 30.19 in1022.4 mb 0.00 in0.0 mm 0.00 in0.0 mm 0.00 in0.0 mm
06:55 AM 34.4°F1.3°C 17.2°F-8.2°C 49% 2.0 mph SSE3.2 kmh SSE -- 30.19 in1022.4 mb 0.00 in0.0 mm 0.00 in0.0 mm 0.00 in0.0 mm
06:50 AM 34.6°F1.4°C 16.9°F-8.4°C 48% 4.0 mph S6.4 kmh S -- 30.19 in1022.4 mb 0.00 in0.0 mm 0.00 in0.0 mm 0.00 in0.0 mm
06:45 AM 34.6°F1.4°C 16.0°F-8.9°C 46% 2.0 mph SSE3.2 kmh SSE -- 30.19 in1022.4 mb 0.00 in0.0 mm 0.00 in0.0 mm 0.00 in0.0 mm
06:40 AM 34.6°F1.4°C 16.0°F-8.9°C 46% 3.0 mph S4.8 kmh S -- 30.19 in1022.4 mb 0.00 in0.0 mm 0.00 in0.0 mm 0.00 in0.0 mm
06:35 AM 34.7°F1.5°C 16.0°F-8.9°C 46% 4.0 mph S6.4 kmh S -- 30.19 in1022.4 mb 0.00 in0.0 mm 0.00 in0.0 mm 0.00 in0.0 mm
06:30 AM 34.8°F1.6°C 16.7°F-8.5°C 47% 4.0 mph S6.4 kmh S -- 30.19 in1022.4 mb 0.00 in0.0 mm 0.00 in0.0 mm 0.00 in0.0 mm
06:25 AM 35.0°F1.7°C 16.9°F-8.4°C 47% 4.0 mph SSE6.4 kmh SSE -- 30.18 in1022.0 mb 0.00 in0.0 mm 0.00 in0.0 mm 0.00 in0.0 mm
06:20 AM 35.2°F1.8°C 17.1°F-8.3°C 47% 5.0 mph SSE8.0 kmh SSE -- 30.18 in1022.0 mb 0.00 in0.0 mm 0.00 in0.0 mm 0.00 in0.0 mm
06:15 AM 35.2°F1.8°C 15.6°F-9.1°C 44% 3.0 mph SSE4.8 kmh SSE -- 30.18 in1022.0 mb 0.00 in0.0 mm 0.00 in0.0 mm 0.00 in0.0 mm
06:10 AM 35.1°F1.7°C 15.8°F-9.0°C 45% 4.0 mph S6.4 kmh S -- 30.18 in1022.0 mb 0.00 in0.0 mm 0.00 in0.0 mm 0.00 in0.0 mm
06:05 AM 35.0°F1.7°C 15.4°F-9.2°C 44% 2.0 mph S3.2 kmh S -- 30.18 in1022.0 mb 0.00 in0.0 mm 0.00 in0.0 mm 0.00 in0.0 mm
06:00 AM 35.0°F1.7°C 15.8°F-9.0°C 45% 3.0 mph S4.8 kmh S -- 30.18 in1022.0 mb 0.00 in0.0 mm 0.00 in0.0 mm 0.00 in0.0 mm
05:55 AM 35.0°F1.7°C 15.8°F-9.0°C 45% 2.0 mph S3.2 kmh S -- 30.18 in1022.0 mb 0.00 in0.0 mm 0.00 in0.0 mm 0.00 in0.0 mm
05:50 AM 35.0°F1.7°C 16.3°F-8.7°C 46% 4.0 mph S6.4 kmh S -- 30.18 in1022.0 mb 0.00 in0.0 mm 0.00 in0.0 mm 0.00 in0.0 mm
05:45 AM 34.8°F1.6°C 15.8°F-9.0°C 45% 4.0 mph SSE6.4 kmh SSE -- 30.18 in1022.0 mb 0.00 in0.0 mm 0.00 in0.0 mm 0.00 in0.0 mm
05:40 AM 34.4°F1.3°C 16.2°F-8.8°C 47% 5.0 mph S8.0 kmh S -- 30.17 in1021.7 mb 0.00 in0.0 mm 0.00 in0.0 mm 0.00 in0.0 mm
05:35 AM 34.2°F1.2°C 16.0°F-8.9°C 47% 4.0 mph SSE6.4 kmh SSE -- 30.17 in1021.7 mb 0.00 in0.0 mm 0.00 in0.0 mm 0.00 in0.0 mm
05:30 AM 33.5°F0.8°C 13.8°F-10.1°C 44% 1.0 mph S1.6 kmh S -- 30.17 in1021.7 mb 0.00 in0.0 mm 0.00 in0.0 mm 0.00 in0.0 mm
05:25 AM 32.7°F0.4°C 14.7°F-9.6°C 47% 5.0 mph S8.0 kmh S -- 30.17 in1021.7 mb 0.00 in0.0 mm 0.00 in0.0 mm 0.00 in0.0 mm
05:20 AM 31.8°F-0.1°C 14.9°F-9.5°C 49% 5.0 mph S8.0 kmh S -- 30.17 in1021.7 mb 0.00 in0.0 mm 0.00 in0.0 mm 0.00 in0.0 mm
05:15 AM 31.1°F-0.5°C 16.0°F-8.9°C 53% 6.0 mph S9.7 kmh S -- 30.17 in1021.7 mb 0.00 in0.0 mm 0.00 in0.0 mm 0.00 in0.0 mm
05:10 AM 30.6°F-0.8°C 16.0°F-8.9°C 54% 7.0 mph S11.3 kmh S -- 30.17 in1021.7 mb 0.00 in0.0 mm 0.00 in0.0 mm 0.00 in0.0 mm
05:05 AM 30.5°F-0.8°C 16.7°F-8.5°C 56% 3.0 mph S4.8 kmh S -- 30.18 in1022.0 mb 0.00 in0.0 mm 0.00 in0.0 mm 0.00 in0.0 mm
05:00 AM 30.5°F-0.8°C 16.7°F-8.5°C 56% Calm Calm -- 30.18 in1022.0 mb 0.00 in0.0 mm 0.00 in0.0 mm 0.00 in0.0 mm
04:55 AM 30.5°F-0.8°C 16.7°F-8.5°C 56% 3.0 mph S4.8 kmh S -- 30.17 in1021.7 mb 0.00 in0.0 mm 0.00 in0.0 mm 0.00 in0.0 mm
04:50 AM 30.5°F-0.8°C 16.7°F-8.5°C 56% 3.0 mph SSE4.8 kmh SSE -- 30.17 in1021.7 mb 0.00 in0.0 mm 0.00 in0.0 mm 0.00 in0.0 mm
04:45 AM 30.5°F-0.8°C 16.7°F-8.5°C 56% 1.0 mph S1.6 kmh S -- 30.17 in1021.7 mb 0.00 in0.0 mm 0.00 in0.0 mm 0.00 in0.0 mm
04:40 AM 30.5°F-0.8°C 16.3°F-8.7°C 55% 2.0 mph S3.2 kmh S -- 30.17 in1021.7 mb 0.00 in0.0 mm 0.00 in0.0 mm 0.00 in0.0 mm
04:35 AM 30.6°F-0.8°C 16.0°F-8.9°C 54% 3.0 mph SE4.8 kmh SE -- 30.17 in1021.7 mb 0.00 in0.0 mm 0.00 in0.0 mm 0.00 in0.0 mm
04:30 AM 30.7°F-0.7°C 16.2°F-8.8°C 54% 1.0 mph SE1.6 kmh SE -- 30.17 in1021.7 mb 0.00 in0.0 mm 0.00 in0.0 mm 0.00 in0.0 mm
04:25 AM 30.8°F-0.7°C 16.2°F-8.8°C 54% 2.0 mph SE3.2 kmh SE -- 30.17 in1021.7 mb 0.00 in0.0 mm 0.00 in0.0 mm 0.00 in0.0 mm
04:20 AM 30.8°F-0.7°C 16.2°F-8.8°C 54% 1.0 mph SE1.6 kmh SE -- 30.17 in1021.7 mb 0.00 in0.0 mm 0.00 in0.0 mm 0.00 in0.0 mm
04:15 AM 31.0°F-0.6°C 16.7°F-8.5°C 55% 3.0 mph SE4.8 kmh SE -- 30.17 in1021.7 mb 0.00 in0.0 mm 0.00 in0.0 mm 0.00 in0.0 mm
04:10 AM 31.1°F-0.5°C 16.9°F-8.4°C 55% 1.0 mph SE1.6 kmh SE -- 30.18 in1022.0 mb 0.00 in0.0 mm 0.00 in0.0 mm 0.00 in0.0 mm
04:05 AM 31.2°F-0.4°C 17.4°F-8.1°C 56% 3.0 mph SSE4.8 kmh SSE -- 30.18 in1022.0 mb 0.00 in0.0 mm 0.00 in0.0 mm 0.00 in0.0 mm
04:00 AM 31.3°F-0.4°C 17.4°F-8.1°C 56% 3.0 mph SSE4.8 kmh SSE -- 30.18 in1022.0 mb 0.00 in0.0 mm 0.00 in0.0 mm 0.00 in0.0 mm
03:55 AM 31.4°F-0.3°C 17.6°F-8.0°C 56% 4.0 mph SSE6.4 kmh SSE -- 30.18 in1022.0 mb 0.00 in0.0 mm 0.00 in0.0 mm 0.00 in0.0 mm
03:50 AM 31.5°F-0.3°C 16.3°F-8.7°C 53% 3.0 mph E4.8 kmh E -- 30.18 in1022.0 mb 0.00 in0.0 mm 0.00 in0.0 mm 0.00 in0.0 mm
03:45 AM 31.5°F-0.3°C 17.2°F-8.2°C 55% 4.0 mph SSW6.4 kmh SSW -- 30.18 in1022.0 mb 0.00 in0.0 mm 0.00 in0.0 mm 0.00 in0.0 mm
03:40 AM 31.6°F-0.2°C 16.5°F-8.6°C 53% 5.0 mph SSE8.0 kmh SSE -- 30.18 in1022.0 mb 0.00 in0.0 mm 0.00 in0.0 mm 0.00 in0.0 mm
03:35 AM 31.6°F-0.2°C 16.9°F-8.4°C 54% 3.0 mph SSW4.8 kmh SSW -- 30.18 in1022.0 mb 0.00 in0.0 mm 0.00 in0.0 mm 0.00 in0.0 mm
03:30 AM 31.9°F-0.1°C 17.6°F-8.0°C 55% 3.0 mph WSW4.8 kmh WSW -- 30.19 in1022.4 mb 0.00 in0.0 mm 0.00 in0.0 mm 0.00 in0.0 mm
03:25 AM 32.1°F0.1°C 17.4°F-8.1°C 54% Calm Calm -- 30.18 in1022.0 mb 0.00 in0.0 mm 0.00 in0.0 mm 0.00 in0.0 mm
03:20 AM 32.3°F0.2°C 17.6°F-8.0°C 54% 2.0 mph SSE3.2 kmh SSE -- 30.18 in1022.0 mb 0.00 in0.0 mm 0.00 in0.0 mm 0.00 in0.0 mm
03:15 AM 32.4°F0.2°C 17.2°F-8.2°C 53% 4.0 mph S6.4 kmh S -- 30.18 in1022.0 mb 0.00 in0.0 mm 0.00 in0.0 mm 0.00 in0.0 mm
03:10 AM 32.7°F0.4°C 17.1°F-8.3°C 52% 3.0 mph SSE4.8 kmh SSE -- 30.18 in1022.0 mb 0.00 in0.0 mm 0.00 in0.0 mm 0.00 in0.0 mm
03:05 AM 32.8°F0.4°C 16.2°F-8.8°C 50% 1.0 mph S1.6 kmh S -- 30.18 in1022.0 mb 0.00 in0.0 mm 0.00 in0.0 mm 0.00 in0.0 mm
03:00 AM 33.0°F0.6°C 16.9°F-8.4°C 51% 4.0 mph S6.4 kmh S -- 30.18 in1022.0 mb 0.00 in0.0 mm 0.00 in0.0 mm 0.00 in0.0 mm
02:55 AM 33.2°F0.7°C 16.7°F-8.5°C 50% 3.0 mph SE4.8 kmh SE -- 30.18 in1022.0 mb 0.00 in0.0 mm 0.00 in0.0 mm 0.00 in0.0 mm
02:50 AM 33.3°F0.7°C 16.7°F-8.5°C 50% 2.0 mph ESE3.2 kmh ESE -- 30.19 in1022.4 mb 0.00 in0.0 mm 0.00 in0.0 mm 0.00 in0.0 mm
02:45 AM 33.3°F0.7°C 16.7°F-8.5°C 50% 2.0 mph WSW3.2 kmh WSW -- 30.19 in1022.4 mb 0.00 in0.0 mm 0.00 in0.0 mm 0.00 in0.0 mm
02:40 AM 33.3°F0.7°C 16.7°F-8.5°C 50% 2.0 mph S3.2 kmh S -- 30.19 in1022.4 mb 0.00 in0.0 mm 0.00 in0.0 mm 0.00 in0.0 mm
02:35 AM 33.2°F0.7°C 16.7°F-8.5°C 50% 4.0 mph S6.4 kmh S -- 30.19 in1022.4 mb 0.00 in0.0 mm 0.00 in0.0 mm 0.00 in0.0 mm
02:30 AM 33.1°F0.6°C 16.9°F-8.4°C 51% 3.0 mph S4.8 kmh S -- 30.19 in1022.4 mb 0.00 in0.0 mm 0.00 in0.0 mm 0.00 in0.0 mm
02:25 AM 32.9°F0.5°C 16.7°F-8.5°C 51% 4.0 mph S6.4 kmh S -- 30.19 in1022.4 mb 0.00 in0.0 mm 0.00 in0.0 mm 0.00 in0.0 mm
02:20 AM 32.6°F0.3°C 16.0°F-8.9°C 50% 3.0 mph SW4.8 kmh SW -- 30.19 in1022.4 mb 0.00 in0.0 mm 0.00 in0.0 mm 0.00 in0.0 mm
02:15 AM 32.3°F0.2°C 16.3°F-8.7°C 51% 2.0 mph SW3.2 kmh SW -- 30.19 in1022.4 mb 0.00 in0.0 mm 0.00 in0.0 mm 0.00 in0.0 mm
02:10 AM 32.3°F0.2°C 17.2°F-8.2°C 53% 4.0 mph SW6.4 kmh SW -- 30.19 in1022.4 mb 0.00 in0.0 mm 0.00 in0.0 mm 0.00 in0.0 mm
02:05 AM 32.4°F0.2°C 18.0°F-7.8°C 55% 5.0 mph SW8.0 kmh SW -- 30.18 in1022.0 mb 0.00 in0.0 mm 0.00 in0.0 mm 0.00 in0.0 mm
02:00 AM 32.8°F0.4°C 18.0°F-7.8°C 54% 4.0 mph WSW6.4 kmh WSW -- 30.19 in1022.4 mb 0.00 in0.0 mm 0.00 in0.0 mm 0.00 in0.0 mm
01:55 AM 33.2°F0.7°C 18.0°F-7.8°C 53% 1.0 mph E1.6 kmh E -- 30.19 in1022.4 mb 0.00 in0.0 mm 0.00 in0.0 mm 0.00 in0.0 mm
01:50 AM 33.4°F0.8°C 18.1°F-7.7°C 53% 2.0 mph E3.2 kmh E -- 30.19 in1022.4 mb 0.00 in0.0 mm 0.00 in0.0 mm 0.00 in0.0 mm
01:45 AM 33.6°F0.9°C 17.1°F-8.3°C 50% 2.0 mph ESE3.2 kmh ESE -- 30.19 in1022.4 mb 0.00 in0.0 mm 0.00 in0.0 mm 0.00 in0.0 mm
01:40 AM 33.7°F0.9°C 16.5°F-8.6°C 49% 1.0 mph W1.6 kmh W -- 30.19 in1022.4 mb 0.00 in0.0 mm 0.00 in0.0 mm 0.00 in0.0 mm
01:35 AM 33.9°F1.1°C 18.1°F-7.7°C 52% 2.0 mph W3.2 kmh W -- 30.19 in1022.4 mb 0.00 in0.0 mm 0.00 in0.0 mm 0.00 in0.0 mm
01:30 AM 34.1°F1.2°C 17.1°F-8.3°C 49% 4.0 mph SSE6.4 kmh SSE -- 30.19 in1022.4 mb 0.00 in0.0 mm 0.00 in0.0 mm 0.00 in0.0 mm
01:25 AM 34.2°F1.2°C 17.1°F-8.3°C 49% 4.0 mph SSE6.4 kmh SSE -- 30.19 in1022.4 mb 0.00 in0.0 mm 0.00 in0.0 mm 0.00 in0.0 mm
01:20 AM 34.2°F1.2°C 17.4°F-8.1°C 50% 5.0 mph SSE8.0 kmh SSE -- 30.19 in1022.4 mb 0.00 in0.0 mm 0.00 in0.0 mm 0.00 in0.0 mm
01:15 AM 34.3°F1.3°C 17.2°F-8.2°C 49% 3.0 mph NW4.8 kmh NW -- 30.18 in1022.0 mb 0.00 in0.0 mm 0.00 in0.0 mm 0.00 in0.0 mm
01:10 AM 34.2°F1.2°C 17.1°F-8.3°C 49% 8.0 mph S12.9 kmh S -- 30.18 in1022.0 mb 0.00 in0.0 mm 0.00 in0.0 mm 0.00 in0.0 mm
01:05 AM 34.3°F1.3°C 18.1°F-7.7°C 51% 7.0 mph S11.3 kmh S -- 30.18 in1022.0 mb 0.00 in0.0 mm 0.00 in0.0 mm 0.00 in0.0 mm
01:00 AM 34.4°F1.3°C 16.2°F-8.8°C 47% 7.0 mph SSE11.3 kmh SSE -- 30.18 in1022.0 mb 0.00 in0.0 mm 0.00 in0.0 mm 0.00 in0.0 mm
12:55 AM 34.3°F1.3°C 16.2°F-8.8°C 47% 3.0 mph SW4.8 kmh SW -- 30.18 in1022.0 mb 0.00 in0.0 mm 0.00 in0.0 mm 0.00 in0.0 mm
12:50 AM 34.3°F1.3°C 17.6°F-8.0°C 50% 1.0 mph WSW1.6 kmh WSW -- 30.18 in1022.0 mb 0.00 in0.0 mm 0.00 in0.0 mm 0.00 in0.0 mm
12:45 AM 34.4°F1.3°C 17.6°F-8.0°C 50% 2.0 mph WSW3.2 kmh WSW -- 30.18 in1022.0 mb 0.00 in0.0 mm 0.00 in0.0 mm 0.00 in0.0 mm
12:40 AM 34.4°F1.3°C 17.2°F-8.2°C 49% 2.0 mph SW3.2 kmh SW -- 30.18 in1022.0 mb 0.00 in0.0 mm 0.00 in0.0 mm 0.00 in0.0 mm
12:35 AM 34.5°F1.4°C 17.8°F-7.9°C 50% 3.0 mph E4.8 kmh E -- 30.17 in1021.7 mb 0.00 in0.0 mm 0.00 in0.0 mm 0.00 in0.0 mm
12:30 AM 34.6°F1.4°C 17.8°F-7.9°C 50% 2.0 mph SW3.2 kmh SW -- 30.17 in1021.7 mb 0.00 in0.0 mm 0.00 in0.0 mm 0.00 in0.0 mm
12:25 AM 34.7°F1.5°C 17.6°F-8.0°C 49% 1.0 mph SW1.6 kmh SW -- 30.18 in1022.0 mb 0.00 in0.0 mm 0.00 in0.0 mm 0.00 in0.0 mm
12:20 AM 34.9°F1.6°C 18.1°F-7.7°C 50% 1.0 mph SW1.6 kmh SW -- 30.18 in1022.0 mb 0.00 in0.0 mm 0.00 in0.0 mm 0.00 in0.0 mm
12:15 AM 35.0°F1.7°C 17.4°F-8.1°C 48% 3.0 mph S4.8 kmh S -- 30.18 in1022.0 mb 0.00 in0.0 mm 0.00 in0.0 mm 0.00 in0.0 mm
12:10 AM 35.2°F1.8°C 18.0°F-7.8°C 49% 3.0 mph SSE4.8 kmh SSE -- 30.18 in1022.0 mb 0.00 in0.0 mm 0.00 in0.0 mm 0.00 in0.0 mm
12:05 AM 35.4°F1.9°C 18.7°F-7.4°C 50% 2.0 mph WSW3.2 kmh WSW -- 30.18 in1022.0 mb 0.00 in0.0 mm 0.00 in0.0 mm 0.00 in0.0 mm
12:00 AM 35.6°F2.0°C 17.8°F-7.9°C 48% 4.0 mph S6.4 kmh S -- 30.18 in1022.0 mb 0.00 in0.0 mm 0.00 in0.0 mm 0.00 in0.0 mm